sensor_id;sensor_type;location;lat;lon;timestamp;P1;durP1;ratioP1;P2;durP2;ratioP2
2486;SDS011;1254;49.144;8.212;2023-07-31T00:00:02;5.17;;;2.57;;
2486;SDS011;1254;49.144;8.212;2023-07-31T00:02:32;3.90;;;2.30;;
2486;SDS011;1254;49.144;8.212;2023-07-31T00:05:00;4.30;;;2.20;;
2486;SDS011;1254;49.144;8.212;2023-07-31T00:07:29;4.10;;;2.47;;
2486;SDS011;1254;49.144;8.212;2023-07-31T00:09:57;7.70;;;2.63;;
2486;SDS011;1254;49.144;8.212;2023-07-31T00:12:25;5.23;;;2.73;;
2486;SDS011;1254;49.144;8.212;2023-07-31T00:14:53;4.40;;;2.40;;
2486;SDS011;1254;49.144;8.212;2023-07-31T00:17:21;6.70;;;3.03;;
2486;SDS011;1254;49.144;8.212;2023-07-31T00:19:51;4.67;;;2.40;;
2486;SDS011;1254;49.144;8.212;2023-07-31T00:22:19;2.93;;;2.17;;
2486;SDS011;1254;49.144;8.212;2023-07-31T00:24:47;7.77;;;2.20;;
2486;SDS011;1254;49.144;8.212;2023-07-31T00:27:15;9.30;;;2.80;;
2486;SDS011;1254;49.144;8.212;2023-07-31T00:29:44;9.10;;;2.30;;
2486;SDS011;1254;49.144;8.212;2023-07-31T00:32:12;2.40;;;2.20;;
2486;SDS011;1254;49.144;8.212;2023-07-31T00:34:40;3.73;;;3.43;;
2486;SDS011;1254;49.144;8.212;2023-07-31T00:37:10;4.17;;;2.33;;
2486;SDS011;1254;49.144;8.212;2023-07-31T00:39:38;2.10;;;1.90;;
2486;SDS011;1254;49.144;8.212;2023-07-31T00:42:06;2.80;;;1.83;;
2486;SDS011;1254;49.144;8.212;2023-07-31T00:44:34;4.83;;;3.17;;
2486;SDS011;1254;49.144;8.212;2023-07-31T00:47:02;6.33;;;3.17;;
2486;SDS011;1254;49.144;8.212;2023-07-31T00:49:31;3.67;;;2.40;;
2486;SDS011;1254;49.144;8.212;2023-07-31T00:51:59;2.87;;;2.40;;
2486;SDS011;1254;49.144;8.212;2023-07-31T00:54:30;4.30;;;2.10;;
2486;SDS011;1254;49.144;8.212;2023-07-31T00:57:00;2.60;;;2.27;;
2486;SDS011;1254;49.144;8.212;2023-07-31T00:59:28;4.90;;;2.50;;
2486;SDS011;1254;49.144;8.212;2023-07-31T01:01:56;5.13;;;2.53;;
2486;SDS011;1254;49.144;8.212;2023-07-31T01:04:25;3.23;;;2.30;;
2486;SDS011;1254;49.144;8.212;2023-07-31T01:06:55;2.80;;;1.83;;
2486;SDS011;1254;49.144;8.212;2023-07-31T01:09:27;5.00;;;2.40;;
2486;SDS011;1254;49.144;8.212;2023-07-31T01:12:00;2.50;;;2.30;;
2486;SDS011;1254;49.144;8.212;2023-07-31T01:14:29;5.47;;;2.50;;
2486;SDS011;1254;49.144;8.212;2023-07-31T01:16:57;2.43;;;2.03;;
2486;SDS011;1254;49.144;8.212;2023-07-31T01:19:26;2.37;;;1.80;;
2486;SDS011;1254;49.144;8.212;2023-07-31T01:24:44;3.27;;;2.40;;
2486;SDS011;1254;49.144;8.212;2023-07-31T01:27:21;4.80;;;2.70;;
2486;SDS011;1254;49.144;8.212;2023-07-31T01:29:53;2.73;;;2.53;;
2486;SDS011;1254;49.144;8.212;2023-07-31T01:32:24;4.40;;;3.10;;
2486;SDS011;1254;49.144;8.212;2023-07-31T01:34:53;4.00;;;2.27;;
2486;SDS011;1254;49.144;8.212;2023-07-31T01:37:21;2.57;;;2.37;;
2486;SDS011;1254;49.144;8.212;2023-07-31T01:39:50;4.50;;;2.33;;
2486;SDS011;1254;49.144;8.212;2023-07-31T01:42:21;4.37;;;2.30;;
2486;SDS011;1254;49.144;8.212;2023-07-31T01:44:50;4.73;;;2.00;;
2486;SDS011;1254;49.144;8.212;2023-07-31T01:47:19;4.27;;;2.10;;
2486;SDS011;1254;49.144;8.212;2023-07-31T01:49:47;2.37;;;2.17;;
2486;SDS011;1254;49.144;8.212;2023-07-31T01:52:16;3.40;;;2.30;;
2486;SDS011;1254;49.144;8.212;2023-07-31T01:54:44;5.93;;;2.40;;
2486;SDS011;1254;49.144;8.212;2023-07-31T01:57:12;5.63;;;2.27;;
2486;SDS011;1254;49.144;8.212;2023-07-31T01:59:42;7.40;;;3.37;;
2486;SDS011;1254;49.144;8.212;2023-07-31T02:02:10;3.43;;;2.13;;
2486;SDS011;1254;49.144;8.212;2023-07-31T02:04:38;7.03;;;2.23;;
2486;SDS011;1254;49.144;8.212;2023-07-31T02:07:08;5.97;;;2.97;;
2486;SDS011;1254;49.144;8.212;2023-07-31T02:09:36;9.80;;;3.37;;
2486;SDS011;1254;49.144;8.212;2023-07-31T02:12:04;4.40;;;2.10;;
2486;SDS011;1254;49.144;8.212;2023-07-31T02:14:34;6.07;;;2.07;;
2486;SDS011;1254;49.144;8.212;2023-07-31T02:17:04;3.17;;;2.70;;
2486;SDS011;1254;49.144;8.212;2023-07-31T02:19:32;3.40;;;2.40;;
2486;SDS011;1254;49.144;8.212;2023-07-31T02:22:00;5.40;;;2.40;;
2486;SDS011;1254;49.144;8.212;2023-07-31T02:24:29;9.13;;;2.33;;
2486;SDS011;1254;49.144;8.212;2023-07-31T02:26:58;3.53;;;2.33;;
2486;SDS011;1254;49.144;8.212;2023-07-31T02:29:26;5.33;;;2.37;;
2486;SDS011;1254;49.144;8.212;2023-07-31T02:31:55;4.13;;;2.40;;
2486;SDS011;1254;49.144;8.212;2023-07-31T02:34:24;3.83;;;2.10;;
2486;SDS011;1254;49.144;8.212;2023-07-31T02:36:53;3.43;;;2.20;;
2486;SDS011;1254;49.144;8.212;2023-07-31T02:39:21;5.77;;;2.73;;
2486;SDS011;1254;49.144;8.212;2023-07-31T02:41:49;4.60;;;2.90;;
2486;SDS011;1254;49.144;8.212;2023-07-31T02:44:17;3.60;;;2.40;;
2486;SDS011;1254;49.144;8.212;2023-07-31T02:46:47;3.30;;;2.20;;
2486;SDS011;1254;49.144;8.212;2023-07-31T02:49:15;3.27;;;2.50;;
2486;SDS011;1254;49.144;8.212;2023-07-31T02:51:45;5.03;;;3.30;;
2486;SDS011;1254;49.144;8.212;2023-07-31T02:54:13;2.50;;;2.13;;
2486;SDS011;1254;49.144;8.212;2023-07-31T02:56:41;4.93;;;2.80;;
2486;SDS011;1254;49.144;8.212;2023-07-31T02:59:09;8.27;;;2.20;;
2486;SDS011;1254;49.144;8.212;2023-07-31T03:01:37;3.23;;;2.27;;
2486;SDS011;1254;49.144;8.212;2023-07-31T03:04:06;3.43;;;2.00;;
2486;SDS011;1254;49.144;8.212;2023-07-31T03:06:34;2.60;;;2.20;;
2486;SDS011;1254;49.144;8.212;2023-07-31T03:09:04;2.50;;;2.30;;
2486;SDS011;1254;49.144;8.212;2023-07-31T03:11:32;7.33;;;2.20;;
2486;SDS011;1254;49.144;8.212;2023-07-31T03:14:00;3.60;;;2.90;;
2486;SDS011;1254;49.144;8.212;2023-07-31T03:16:28;3.63;;;2.37;;
2486;SDS011;1254;49.144;8.212;2023-07-31T03:18:56;9.13;;;2.83;;
2486;SDS011;1254;49.144;8.212;2023-07-31T03:21:25;8.40;;;3.03;;
2486;SDS011;1254;49.144;8.212;2023-07-31T03:23:53;7.33;;;2.70;;
2486;SDS011;1254;49.144;8.212;2023-07-31T03:26:23;2.70;;;2.30;;
2486;SDS011;1254;49.144;8.212;2023-07-31T03:28:51;2.60;;;2.40;;
2486;SDS011;1254;49.144;8.212;2023-07-31T03:31:20;4.73;;;3.10;;
2486;SDS011;1254;49.144;8.212;2023-07-31T03:33:48;3.13;;;2.43;;
2486;SDS011;1254;49.144;8.212;2023-07-31T03:36:16;3.33;;;2.87;;
2486;SDS011;1254;49.144;8.212;2023-07-31T03:38:45;5.60;;;2.37;;
2486;SDS011;1254;49.144;8.212;2023-07-31T03:41:13;3.67;;;2.90;;
2486;SDS011;1254;49.144;8.212;2023-07-31T03:43:50;2.70;;;2.20;;
2486;SDS011;1254;49.144;8.212;2023-07-31T03:46:19;2.90;;;2.30;;
2486;SDS011;1254;49.144;8.212;2023-07-31T03:48:48;5.90;;;2.83;;
2486;SDS011;1254;49.144;8.212;2023-07-31T03:51:17;2.50;;;2.33;;
2486;SDS011;1254;49.144;8.212;2023-07-31T03:53:45;4.40;;;2.70;;
2486;SDS011;1254;49.144;8.212;2023-07-31T03:56:13;6.63;;;2.90;;
2486;SDS011;1254;49.144;8.212;2023-07-31T03:58:41;6.30;;;2.60;;
2486;SDS011;1254;49.144;8.212;2023-07-31T04:01:11;8.70;;;3.17;;
2486;SDS011;1254;49.144;8.212;2023-07-31T04:03:39;7.50;;;2.80;;
2486;SDS011;1254;49.144;8.212;2023-07-31T04:06:07;4.93;;;2.17;;
2486;SDS011;1254;49.144;8.212;2023-07-31T04:08:36;4.50;;;2.60;;
2486;SDS011;1254;49.144;8.212;2023-07-31T04:11:04;3.30;;;2.47;;
2486;SDS011;1254;49.144;8.212;2023-07-31T04:13:32;3.43;;;2.80;;
2486;SDS011;1254;49.144;8.212;2023-07-31T04:16:00;6.20;;;2.37;;
2486;SDS011;1254;49.144;8.212;2023-07-31T04:18:30;4.10;;;2.50;;
2486;SDS011;1254;49.144;8.212;2023-07-31T04:20:58;2.97;;;2.73;;
2486;SDS011;1254;49.144;8.212;2023-07-31T04:23:27;4.70;;;2.43;;
2486;SDS011;1254;49.144;8.212;2023-07-31T04:25:55;8.30;;;2.70;;
2486;SDS011;1254;49.144;8.212;2023-07-31T04:28:23;4.63;;;2.43;;
2486;SDS011;1254;49.144;8.212;2023-07-31T04:30:52;3.40;;;2.50;;
2486;SDS011;1254;49.144;8.212;2023-07-31T04:33:20;4.30;;;2.77;;
2486;SDS011;1254;49.144;8.212;2023-07-31T04:35:51;3.17;;;2.53;;
2486;SDS011;1254;49.144;8.212;2023-07-31T04:38:19;4.60;;;3.23;;
2486;SDS011;1254;49.144;8.212;2023-07-31T04:40:48;6.10;;;2.63;;
2486;SDS011;1254;49.144;8.212;2023-07-31T04:43:16;3.23;;;2.93;;
2486;SDS011;1254;49.144;8.212;2023-07-31T04:45:45;3.00;;;2.40;;
2486;SDS011;1254;49.144;8.212;2023-07-31T04:48:14;4.80;;;2.80;;
2486;SDS011;1254;49.144;8.212;2023-07-31T04:50:42;2.97;;;2.53;;
2486;SDS011;1254;49.144;8.212;2023-07-31T04:53:12;6.90;;;2.80;;
2486;SDS011;1254;49.144;8.212;2023-07-31T04:55:40;3.90;;;3.50;;
2486;SDS011;1254;49.144;8.212;2023-07-31T04:58:08;5.83;;;2.77;;
2486;SDS011;1254;49.144;8.212;2023-07-31T05:00:36;4.10;;;3.27;;
2486;SDS011;1254;49.144;8.212;2023-07-31T05:03:04;4.00;;;2.43;;
2486;SDS011;1254;49.144;8.212;2023-07-31T05:05:33;8.63;;;2.67;;
2486;SDS011;1254;49.144;8.212;2023-07-31T05:08:02;7.23;;;3.30;;
2486;SDS011;1254;49.144;8.212;2023-07-31T05:10:31;5.70;;;2.60;;
2486;SDS011;1254;49.144;8.212;2023-07-31T05:12:59;5.00;;;2.93;;
2486;SDS011;1254;49.144;8.212;2023-07-31T05:15:28;9.33;;;2.20;;
2486;SDS011;1254;49.144;8.212;2023-07-31T05:17:56;2.63;;;2.40;;
2486;SDS011;1254;49.144;8.212;2023-07-31T05:20:24;5.43;;;2.73;;
2486;SDS011;1254;49.144;8.212;2023-07-31T05:22:53;6.37;;;3.13;;
2486;SDS011;1254;49.144;8.212;2023-07-31T05:25:21;8.70;;;3.20;;
2486;SDS011;1254;49.144;8.212;2023-07-31T05:27:51;3.73;;;2.40;;
2486;SDS011;1254;49.144;8.212;2023-07-31T05:30:19;7.07;;;3.20;;
2486;SDS011;1254;49.144;8.212;2023-07-31T05:32:47;5.90;;;3.23;;
2486;SDS011;1254;49.144;8.212;2023-07-31T05:35:16;3.07;;;2.77;;
2486;SDS011;1254;49.144;8.212;2023-07-31T05:37:44;3.30;;;2.27;;
2486;SDS011;1254;49.144;8.212;2023-07-31T05:40:12;8.73;;;3.03;;
2486;SDS011;1254;49.144;8.212;2023-07-31T05:42:40;6.47;;;2.83;;
2486;SDS011;1254;49.144;8.212;2023-07-31T05:45:10;6.00;;;3.30;;
2486;SDS011;1254;49.144;8.212;2023-07-31T05:47:39;3.33;;;2.17;;
2486;SDS011;1254;49.144;8.212;2023-07-31T05:50:08;6.23;;;2.80;;
2486;SDS011;1254;49.144;8.212;2023-07-31T05:52:36;3.40;;;2.73;;
2486;SDS011;1254;49.144;8.212;2023-07-31T05:55:04;3.93;;;2.60;;
2486;SDS011;1254;49.144;8.212;2023-07-31T05:57:34;5.27;;;2.30;;
2486;SDS011;1254;49.144;8.212;2023-07-31T06:00:02;2.73;;;2.40;;
2486;SDS011;1254;49.144;8.212;2023-07-31T06:02:32;5.23;;;2.83;;
2486;SDS011;1254;49.144;8.212;2023-07-31T06:05:03;4.30;;;2.93;;
2486;SDS011;1254;49.144;8.212;2023-07-31T06:07:32;2.70;;;2.50;;
2486;SDS011;1254;49.144;8.212;2023-07-31T06:10:00;2.57;;;2.17;;
2486;SDS011;1254;49.144;8.212;2023-07-31T06:12:30;2.60;;;2.30;;
2486;SDS011;1254;49.144;8.212;2023-07-31T06:15:00;3.07;;;2.80;;
2486;SDS011;1254;49.144;8.212;2023-07-31T06:17:28;5.33;;;2.60;;
2486;SDS011;1254;49.144;8.212;2023-07-31T06:19:58;4.37;;;2.67;;
2486;SDS011;1254;49.144;8.212;2023-07-31T06:22:26;4.37;;;2.57;;
2486;SDS011;1254;49.144;8.212;2023-07-31T06:24:54;2.40;;;2.20;;
2486;SDS011;1254;49.144;8.212;2023-07-31T06:27:22;5.60;;;2.90;;
2486;SDS011;1254;49.144;8.212;2023-07-31T06:29:51;4.00;;;2.83;;
2486;SDS011;1254;49.144;8.212;2023-07-31T06:32:19;3.33;;;2.20;;
2486;SDS011;1254;49.144;8.212;2023-07-31T06:34:47;6.10;;;2.60;;
2486;SDS011;1254;49.144;8.212;2023-07-31T06:37:17;2.77;;;2.57;;
2486;SDS011;1254;49.144;8.212;2023-07-31T06:39:45;6.00;;;2.60;;
2486;SDS011;1254;49.144;8.212;2023-07-31T06:42:13;2.47;;;2.27;;
2486;SDS011;1254;49.144;8.212;2023-07-31T06:44:41;4.53;;;2.70;;
2486;SDS011;1254;49.144;8.212;2023-07-31T06:47:09;5.03;;;2.70;;
2486;SDS011;1254;49.144;8.212;2023-07-31T06:49:38;2.67;;;2.47;;
2486;SDS011;1254;49.144;8.212;2023-07-31T06:52:06;6.13;;;2.50;;
2486;SDS011;1254;49.144;8.212;2023-07-31T06:54:35;2.70;;;2.50;;
2486;SDS011;1254;49.144;8.212;2023-07-31T06:57:04;2.83;;;2.50;;
2486;SDS011;1254;49.144;8.212;2023-07-31T06:59:32;8.90;;;2.53;;
2486;SDS011;1254;49.144;8.212;2023-07-31T07:02:00;2.87;;;2.67;;
2486;SDS011;1254;49.144;8.212;2023-07-31T07:04:28;5.23;;;3.27;;
2486;SDS011;1254;49.144;8.212;2023-07-31T07:06:56;5.53;;;2.87;;
2486;SDS011;1254;49.144;8.212;2023-07-31T07:09:25;5.40;;;2.63;;
2486;SDS011;1254;49.144;8.212;2023-07-31T07:11:54;4.80;;;2.87;;
2486;SDS011;1254;49.144;8.212;2023-07-31T07:14:22;4.03;;;3.03;;
2486;SDS011;1254;49.144;8.212;2023-07-31T07:16:50;2.87;;;2.57;;
2486;SDS011;1254;49.144;8.212;2023-07-31T07:19:19;4.67;;;3.07;;
2486;SDS011;1254;49.144;8.212;2023-07-31T07:21:47;3.47;;;2.70;;
2486;SDS011;1254;49.144;8.212;2023-07-31T07:24:15;5.20;;;2.70;;
2486;SDS011;1254;49.144;8.212;2023-07-31T07:26:43;3.67;;;3.33;;
2486;SDS011;1254;49.144;8.212;2023-07-31T07:29:13;6.03;;;3.00;;
2486;SDS011;1254;49.144;8.212;2023-07-31T07:31:41;3.87;;;2.70;;
2486;SDS011;1254;49.144;8.212;2023-07-31T07:34:10;3.90;;;2.80;;
2486;SDS011;1254;49.144;8.212;2023-07-31T07:36:39;8.80;;;3.30;;
2486;SDS011;1254;49.144;8.212;2023-07-31T07:39:08;3.97;;;2.80;;
2486;SDS011;1254;49.144;8.212;2023-07-31T07:41:36;5.97;;;3.27;;
2486;SDS011;1254;49.144;8.212;2023-07-31T07:44:04;3.27;;;3.00;;
2486;SDS011;1254;49.144;8.212;2023-07-31T07:46:34;3.50;;;3.20;;
2486;SDS011;1254;49.144;8.212;2023-07-31T07:49:02;4.73;;;3.20;;
2486;SDS011;1254;49.144;8.212;2023-07-31T07:51:30;3.13;;;2.93;;
2486;SDS011;1254;49.144;8.212;2023-07-31T07:53:58;3.53;;;3.23;;
2486;SDS011;1254;49.144;8.212;2023-07-31T07:56:27;4.63;;;3.70;;
2486;SDS011;1254;49.144;8.212;2023-07-31T07:58:55;4.50;;;3.13;;
2486;SDS011;1254;49.144;8.212;2023-07-31T08:01:23;4.13;;;3.43;;
2486;SDS011;1254;49.144;8.212;2023-07-31T08:03:53;8.00;;;3.20;;
2486;SDS011;1254;49.144;8.212;2023-07-31T08:06:21;3.20;;;3.00;;
2486;SDS011;1254;49.144;8.212;2023-07-31T08:08:50;3.80;;;3.50;;
2486;SDS011;1254;49.144;8.212;2023-07-31T08:11:18;6.80;;;3.63;;
2486;SDS011;1254;49.144;8.212;2023-07-31T08:13:48;8.03;;;4.10;;
2486;SDS011;1254;49.144;8.212;2023-07-31T08:16:16;3.50;;;3.20;;
2486;SDS011;1254;49.144;8.212;2023-07-31T08:18:44;8.73;;;4.23;;
2486;SDS011;1254;49.144;8.212;2023-07-31T08:21:13;5.83;;;3.90;;
2486;SDS011;1254;49.144;8.212;2023-07-31T08:23:42;5.40;;;3.57;;
2486;SDS011;1254;49.144;8.212;2023-07-31T08:26:14;4.40;;;3.63;;
2486;SDS011;1254;49.144;8.212;2023-07-31T08:28:42;4.60;;;4.20;;
2486;SDS011;1254;49.144;8.212;2023-07-31T08:31:10;4.10;;;3.70;;
2486;SDS011;1254;49.144;8.212;2023-07-31T08:33:38;9.73;;;3.77;;
2486;SDS011;1254;49.144;8.212;2023-07-31T08:36:07;6.67;;;3.80;;
2486;SDS011;1254;49.144;8.212;2023-07-31T08:38:36;6.23;;;3.70;;
2486;SDS011;1254;49.144;8.212;2023-07-31T08:41:05;5.97;;;4.67;;
2486;SDS011;1254;49.144;8.212;2023-07-31T08:43:33;4.20;;;3.80;;
2486;SDS011;1254;49.144;8.212;2023-07-31T08:46:01;4.40;;;3.97;;
2486;SDS011;1254;49.144;8.212;2023-07-31T08:48:30;5.27;;;4.47;;
2486;SDS011;1254;49.144;8.212;2023-07-31T08:50:59;7.73;;;4.67;;
2486;SDS011;1254;49.144;8.212;2023-07-31T08:53:27;4.90;;;4.50;;
2486;SDS011;1254;49.144;8.212;2023-07-31T08:55:56;6.97;;;5.60;;
2486;SDS011;1254;49.144;8.212;2023-07-31T08:58:27;6.13;;;5.50;;
2486;SDS011;1254;49.144;8.212;2023-07-31T09:00:55;7.80;;;5.40;;
2486;SDS011;1254;49.144;8.212;2023-07-31T09:03:24;6.23;;;5.80;;
2486;SDS011;1254;49.144;8.212;2023-07-31T09:05:53;7.60;;;5.77;;
2486;SDS011;1254;49.144;8.212;2023-07-31T09:08:24;6.10;;;5.43;;
2486;SDS011;1254;49.144;8.212;2023-07-31T09:10:57;6.90;;;6.20;;
2486;SDS011;1254;49.144;8.212;2023-07-31T09:13:28;8.97;;;6.77;;
2486;SDS011;1254;49.144;8.212;2023-07-31T09:15:57;6.80;;;6.10;;
2486;SDS011;1254;49.144;8.212;2023-07-31T09:18:26;6.60;;;6.10;;
2486;SDS011;1254;49.144;8.212;2023-07-31T09:21:00;8.23;;;6.20;;
2486;SDS011;1254;49.144;8.212;2023-07-31T09:23:39;6.97;;;6.37;;
2486;SDS011;1254;49.144;8.212;2023-07-31T09:26:08;7.07;;;6.20;;
2486;SDS011;1254;49.144;8.212;2023-07-31T09:28:37;6.93;;;6.27;;
2486;SDS011;1254;49.144;8.212;2023-07-31T09:31:05;6.70;;;6.10;;
2486;SDS011;1254;49.144;8.212;2023-07-31T09:33:34;10.00;;;6.40;;
2486;SDS011;1254;49.144;8.212;2023-07-31T09:36:22;6.47;;;6.03;;
2486;SDS011;1254;49.144;8.212;2023-07-31T09:38:50;7.00;;;6.40;;
2486;SDS011;1254;49.144;8.212;2023-07-31T09:41:18;6.00;;;5.70;;
2486;SDS011;1254;49.144;8.212;2023-07-31T09:43:54;6.60;;;6.07;;
2486;SDS011;1254;49.144;8.212;2023-07-31T09:46:22;6.17;;;5.77;;
2486;SDS011;1254;49.144;8.212;2023-07-31T09:48:50;6.60;;;6.00;;
2486;SDS011;1254;49.144;8.212;2023-07-31T09:51:24;7.07;;;6.50;;
2486;SDS011;1254;49.144;8.212;2023-07-31T09:53:54;5.83;;;5.30;;
2486;SDS011;1254;49.144;8.212;2023-07-31T09:56:22;7.70;;;6.90;;
2486;SDS011;1254;49.144;8.212;2023-07-31T09:58:51;7.00;;;6.37;;
2486;SDS011;1254;49.144;8.212;2023-07-31T10:01:21;7.17;;;6.57;;
2486;SDS011;1254;49.144;8.212;2023-07-31T10:04:01;6.80;;;6.33;;
2486;SDS011;1254;49.144;8.212;2023-07-31T10:06:30;7.30;;;6.60;;
2486;SDS011;1254;49.144;8.212;2023-07-31T10:08:59;7.90;;;6.97;;
2486;SDS011;1254;49.144;8.212;2023-07-31T10:11:27;7.00;;;6.43;;
2486;SDS011;1254;49.144;8.212;2023-07-31T10:13:56;6.43;;;5.93;;
2486;SDS011;1254;49.144;8.212;2023-07-31T10:16:26;7.23;;;6.63;;
2486;SDS011;1254;49.144;8.212;2023-07-31T10:18:54;7.97;;;5.77;;
2486;SDS011;1254;49.144;8.212;2023-07-31T10:21:22;6.80;;;6.10;;
2486;SDS011;1254;49.144;8.212;2023-07-31T10:23:51;6.90;;;6.40;;
2486;SDS011;1254;49.144;8.212;2023-07-31T10:26:19;7.40;;;6.80;;
2486;SDS011;1254;49.144;8.212;2023-07-31T10:28:47;7.50;;;6.80;;
2486;SDS011;1254;49.144;8.212;2023-07-31T10:31:19;6.90;;;6.40;;
2486;SDS011;1254;49.144;8.212;2023-07-31T10:33:49;7.63;;;6.90;;
2486;SDS011;1254;49.144;8.212;2023-07-31T10:36:17;7.97;;;7.33;;
2486;SDS011;1254;49.144;8.212;2023-07-31T10:38:46;6.97;;;6.40;;
2486;SDS011;1254;49.144;8.212;2023-07-31T10:41:16;9.43;;;6.70;;
2486;SDS011;1254;49.144;8.212;2023-07-31T10:43:45;10.30;;;7.90;;
2486;SDS011;1254;49.144;8.212;2023-07-31T10:46:14;7.40;;;6.80;;
2486;SDS011;1254;49.144;8.212;2023-07-31T10:48:42;8.13;;;7.07;;
2486;SDS011;1254;49.144;8.212;2023-07-31T10:51:12;12.33;;;7.30;;
2486;SDS011;1254;49.144;8.212;2023-07-31T10:53:42;7.80;;;7.10;;
2486;SDS011;1254;49.144;8.212;2023-07-31T10:56:10;8.10;;;7.07;;
2486;SDS011;1254;49.144;8.212;2023-07-31T10:58:40;7.30;;;6.80;;
2486;SDS011;1254;49.144;8.212;2023-07-31T11:01:12;8.70;;;7.03;;
2486;SDS011;1254;49.144;8.212;2023-07-31T11:03:40;7.50;;;7.07;;
2486;SDS011;1254;49.144;8.212;2023-07-31T11:06:09;8.20;;;7.50;;
2486;SDS011;1254;49.144;8.212;2023-07-31T11:08:42;7.10;;;6.53;;
2486;SDS011;1254;49.144;8.212;2023-07-31T11:11:11;7.33;;;6.80;;
2486;SDS011;1254;49.144;8.212;2023-07-31T11:13:40;10.77;;;6.87;;
2486;SDS011;1254;49.144;8.212;2023-07-31T11:16:09;7.97;;;7.17;;
2486;SDS011;1254;49.144;8.212;2023-07-31T11:18:38;7.27;;;6.73;;
2486;SDS011;1254;49.144;8.212;2023-07-31T11:21:06;7.60;;;6.93;;
2486;SDS011;1254;49.144;8.212;2023-07-31T11:23:36;8.10;;;7.40;;
2486;SDS011;1254;49.144;8.212;2023-07-31T11:26:07;8.00;;;7.23;;
2486;SDS011;1254;49.144;8.212;2023-07-31T11:28:35;7.80;;;7.00;;
2486;SDS011;1254;49.144;8.212;2023-07-31T11:31:04;8.90;;;6.97;;
2486;SDS011;1254;49.144;8.212;2023-07-31T11:33:32;7.90;;;7.30;;
2486;SDS011;1254;49.144;8.212;2023-07-31T11:36:00;8.20;;;7.50;;
2486;SDS011;1254;49.144;8.212;2023-07-31T11:38:29;7.70;;;7.07;;
2486;SDS011;1254;49.144;8.212;2023-07-31T11:40:58;10.53;;;7.13;;
2486;SDS011;1254;49.144;8.212;2023-07-31T11:43:30;8.63;;;7.73;;
2486;SDS011;1254;49.144;8.212;2023-07-31T11:45:59;8.17;;;7.37;;
2486;SDS011;1254;49.144;8.212;2023-07-31T11:48:29;7.97;;;7.37;;
2486;SDS011;1254;49.144;8.212;2023-07-31T11:50:59;9.77;;;7.93;;
2486;SDS011;1254;49.144;8.212;2023-07-31T11:53:29;8.20;;;7.60;;
2486;SDS011;1254;49.144;8.212;2023-07-31T11:55:59;8.87;;;7.97;;
2486;SDS011;1254;49.144;8.212;2023-07-31T11:58:30;8.90;;;8.10;;
2486;SDS011;1254;49.144;8.212;2023-07-31T12:00:58;8.23;;;7.73;;
2486;SDS011;1254;49.144;8.212;2023-07-31T12:03:27;7.70;;;7.10;;
2486;SDS011;1254;49.144;8.212;2023-07-31T12:05:55;11.13;;;7.83;;
2486;SDS011;1254;49.144;8.212;2023-07-31T12:08:24;8.63;;;7.93;;
2486;SDS011;1254;49.144;8.212;2023-07-31T12:10:52;8.80;;;8.10;;
2486;SDS011;1254;49.144;8.212;2023-07-31T12:13:21;8.50;;;7.80;;
2486;SDS011;1254;49.144;8.212;2023-07-31T12:15:53;8.60;;;7.90;;
2486;SDS011;1254;49.144;8.212;2023-07-31T12:18:22;8.50;;;7.90;;
2486;SDS011;1254;49.144;8.212;2023-07-31T12:20:53;7.80;;;7.30;;
2486;SDS011;1254;49.144;8.212;2023-07-31T12:23:22;7.60;;;7.13;;
2486;SDS011;1254;49.144;8.212;2023-07-31T12:26:03;10.87;;;8.53;;
2486;SDS011;1254;49.144;8.212;2023-07-31T12:28:36;8.60;;;7.87;;
2486;SDS011;1254;49.144;8.212;2023-07-31T12:31:08;7.33;;;6.93;;
2486;SDS011;1254;49.144;8.212;2023-07-31T12:33:37;8.13;;;7.63;;
2486;SDS011;1254;49.144;8.212;2023-07-31T12:36:06;7.83;;;7.23;;
2486;SDS011;1254;49.144;8.212;2023-07-31T12:38:35;8.27;;;7.47;;
2486;SDS011;1254;49.144;8.212;2023-07-31T12:41:03;7.43;;;6.80;;
2486;SDS011;1254;49.144;8.212;2023-07-31T12:43:32;8.37;;;7.73;;
2486;SDS011;1254;49.144;8.212;2023-07-31T12:46:01;7.80;;;7.20;;
2486;SDS011;1254;49.144;8.212;2023-07-31T12:48:31;7.80;;;7.13;;
2486;SDS011;1254;49.144;8.212;2023-07-31T12:50:59;7.60;;;7.00;;
2486;SDS011;1254;49.144;8.212;2023-07-31T12:53:27;8.13;;;7.33;;
2486;SDS011;1254;49.144;8.212;2023-07-31T12:55:55;9.37;;;8.20;;
2486;SDS011;1254;49.144;8.212;2023-07-31T12:58:24;10.57;;;7.33;;
2486;SDS011;1254;49.144;8.212;2023-07-31T13:00:52;7.80;;;7.30;;
2486;SDS011;1254;49.144;8.212;2023-07-31T13:03:20;8.23;;;7.67;;
2486;SDS011;1254;49.144;8.212;2023-07-31T13:05:50;7.83;;;6.80;;
2486;SDS011;1254;49.144;8.212;2023-07-31T13:08:19;8.40;;;7.47;;
2486;SDS011;1254;49.144;8.212;2023-07-31T13:10:47;7.70;;;7.10;;
2486;SDS011;1254;49.144;8.212;2023-07-31T13:13:15;8.00;;;7.47;;
2486;SDS011;1254;49.144;8.212;2023-07-31T13:15:43;8.00;;;7.30;;
2486;SDS011;1254;49.144;8.212;2023-07-31T13:18:12;12.23;;;7.10;;
2486;SDS011;1254;49.144;8.212;2023-07-31T13:20:40;7.90;;;7.30;;
2486;SDS011;1254;49.144;8.212;2023-07-31T13:23:10;7.63;;;6.90;;
2486;SDS011;1254;49.144;8.212;2023-07-31T13:25:38;7.70;;;7.10;;
2486;SDS011;1254;49.144;8.212;2023-07-31T13:28:06;7.37;;;6.80;;
2486;SDS011;1254;49.144;8.212;2023-07-31T13:30:35;7.80;;;7.17;;
2486;SDS011;1254;49.144;8.212;2023-07-31T13:33:03;7.70;;;7.17;;
2486;SDS011;1254;49.144;8.212;2023-07-31T13:35:31;9.37;;;8.57;;
2486;SDS011;1254;49.144;8.212;2023-07-31T13:38:02;7.37;;;6.90;;
2486;SDS011;1254;49.144;8.212;2023-07-31T13:40:31;8.27;;;7.77;;
2486;SDS011;1254;49.144;8.212;2023-07-31T13:42:59;8.10;;;7.40;;
2486;SDS011;1254;49.144;8.212;2023-07-31T13:45:28;7.37;;;6.90;;
2486;SDS011;1254;49.144;8.212;2023-07-31T13:47:56;8.07;;;7.33;;
2486;SDS011;1254;49.144;8.212;2023-07-31T13:50:24;8.20;;;7.70;;
2486;SDS011;1254;49.144;8.212;2023-07-31T13:52:53;8.57;;;7.97;;
2486;SDS011;1254;49.144;8.212;2023-07-31T13:55:22;8.97;;;8.13;;
2486;SDS011;1254;49.144;8.212;2023-07-31T13:57:51;8.07;;;7.57;;
2486;SDS011;1254;49.144;8.212;2023-07-31T14:00:20;9.00;;;8.30;;
2486;SDS011;1254;49.144;8.212;2023-07-31T14:02:48;8.60;;;7.80;;
2486;SDS011;1254;49.144;8.212;2023-07-31T14:05:16;8.00;;;7.50;;
2486;SDS011;1254;49.144;8.212;2023-07-31T14:07:45;8.60;;;7.37;;
2486;SDS011;1254;49.144;8.212;2023-07-31T14:10:13;8.20;;;7.60;;
2486;SDS011;1254;49.144;8.212;2023-07-31T14:12:41;8.00;;;7.40;;
2486;SDS011;1254;49.144;8.212;2023-07-31T14:15:11;7.47;;;6.87;;
2486;SDS011;1254;49.144;8.212;2023-07-31T14:17:39;7.13;;;6.63;;
2486;SDS011;1254;49.144;8.212;2023-07-31T14:20:08;7.20;;;6.60;;
2486;SDS011;1254;49.144;8.212;2023-07-31T14:22:37;8.13;;;7.50;;
2486;SDS011;1254;49.144;8.212;2023-07-31T14:25:05;7.30;;;6.80;;
2486;SDS011;1254;49.144;8.212;2023-07-31T14:27:36;7.83;;;7.27;;
2486;SDS011;1254;49.144;8.212;2023-07-31T14:30:05;8.03;;;6.93;;
2486;SDS011;1254;49.144;8.212;2023-07-31T14:32:34;7.10;;;6.70;;
2486;SDS011;1254;49.144;8.212;2023-07-31T14:35:03;9.00;;;7.10;;
2486;SDS011;1254;49.144;8.212;2023-07-31T14:37:36;7.60;;;6.90;;
2486;SDS011;1254;49.144;8.212;2023-07-31T14:40:05;7.77;;;7.17;;
2486;SDS011;1254;49.144;8.212;2023-07-31T14:42:34;7.20;;;6.80;;
2486;SDS011;1254;49.144;8.212;2023-07-31T14:45:02;8.20;;;7.40;;
2486;SDS011;1254;49.144;8.212;2023-07-31T14:47:30;7.57;;;6.90;;
2486;SDS011;1254;49.144;8.212;2023-07-31T14:50:00;7.73;;;7.03;;
2486;SDS011;1254;49.144;8.212;2023-07-31T14:52:29;8.10;;;7.40;;
2486;SDS011;1254;49.144;8.212;2023-07-31T14:54:57;8.30;;;7.50;;
2486;SDS011;1254;49.144;8.212;2023-07-31T14:57:25;8.23;;;7.43;;
2486;SDS011;1254;49.144;8.212;2023-07-31T14:59:53;8.20;;;7.60;;
2486;SDS011;1254;49.144;8.212;2023-07-31T15:02:21;8.30;;;7.60;;
2486;SDS011;1254;49.144;8.212;2023-07-31T15:04:49;8.57;;;7.97;;
2486;SDS011;1254;49.144;8.212;2023-07-31T15:07:19;13.33;;;8.30;;
2486;SDS011;1254;49.144;8.212;2023-07-31T15:09:47;8.00;;;7.50;;
2486;SDS011;1254;49.144;8.212;2023-07-31T15:12:15;7.50;;;7.10;;
2486;SDS011;1254;49.144;8.212;2023-07-31T15:14:43;8.10;;;7.50;;
2486;SDS011;1254;49.144;8.212;2023-07-31T15:17:12;8.13;;;7.63;;
2486;SDS011;1254;49.144;8.212;2023-07-31T15:19:40;8.00;;;7.40;;
2486;SDS011;1254;49.144;8.212;2023-07-31T15:22:08;8.23;;;7.63;;
2486;SDS011;1254;49.144;8.212;2023-07-31T15:24:38;10.70;;;8.50;;
2486;SDS011;1254;49.144;8.212;2023-07-31T15:27:06;8.87;;;8.00;;